sensor_id;sensor_type;location;lat;lon;timestamp;pressure;altitude;pressure_sealevel;temperature;humidity
35655;BME280;21773;50.010;19.972;2023-05-08T00:00:47;99732.88;;;11.54;55.37
35655;BME280;21773;50.010;19.972;2023-05-08T00:03:52;99727.06;;;11.51;55.11
35655;BME280;21773;50.010;19.972;2023-05-08T00:06:56;99731.84;;;11.49;55.47
35655;BME280;21773;50.010;19.972;2023-05-08T00:09:59;99732.06;;;11.41;55.71
35655;BME280;21773;50.010;19.972;2023-05-08T00:13:02;99736.38;;;11.15;55.61
35655;BME280;21773;50.010;19.972;2023-05-08T00:16:06;99732.41;;;11.11;55.69
35655;BME280;21773;50.010;19.972;2023-05-08T00:19:11;99735.28;;;10.97;55.41
35655;BME280;21773;50.010;19.972;2023-05-08T00:22:14;99727.41;;;10.95;55.32
35655;BME280;21773;50.010;19.972;2023-05-08T00:25:18;99737.09;;;10.76;55.13
35655;BME280;21773;50.010;19.972;2023-05-08T00:28:21;99731.31;;;10.86;55.07
35655;BME280;21773;50.010;19.972;2023-05-08T00:31:24;99731.09;;;10.81;54.80
35655;BME280;21773;50.010;19.972;2023-05-08T00:34:29;99727.34;;;10.75;54.69
35655;BME280;21773;50.010;19.972;2023-05-08T00:37:32;99740.88;;;10.89;54.58
35655;BME280;21773;50.010;19.972;2023-05-08T00:40:36;99733.19;;;10.79;54.33
35655;BME280;21773;50.010;19.972;2023-05-08T00:43:39;99736.28;;;10.82;54.78
35655;BME280;21773;50.010;19.972;2023-05-08T00:46:43;99747.88;;;10.70;54.96
35655;BME280;21773;50.010;19.972;2023-05-08T00:49:49;99748.44;;;10.65;54.75
35655;BME280;21773;50.010;19.972;2023-05-08T00:52:52;99749.06;;;10.61;54.90
35655;BME280;21773;50.010;19.972;2023-05-08T00:55:57;99754.69;;;10.59;55.49
35655;BME280;21773;50.010;19.972;2023-05-08T00:59:02;99757.97;;;10.55;55.49
35655;BME280;21773;50.010;19.972;2023-05-08T01:02:05;99749.06;;;10.61;55.09
35655;BME280;21773;50.010;19.972;2023-05-08T01:05:11;99758.25;;;10.32;55.69
35655;BME280;21773;50.010;19.972;2023-05-08T01:08:15;99764.81;;;10.16;56.10
35655;BME280;21773;50.010;19.972;2023-05-08T01:11:24;99766.75;;;10.29;55.88
35655;BME280;21773;50.010;19.972;2023-05-08T01:14:38;99764.47;;;10.32;55.94
35655;BME280;21773;50.010;19.972;2023-05-08T01:17:56;99764.81;;;10.16;55.71
35655;BME280;21773;50.010;19.972;2023-05-08T01:21:09;99771.72;;;10.25;55.63
35655;BME280;21773;50.010;19.972;2023-05-08T01:24:29;99761.88;;;10.46;55.35
35655;BME280;21773;50.010;19.972;2023-05-08T01:27:56;99773.97;;;10.63;54.78
35655;BME280;21773;50.010;19.972;2023-05-08T01:31:16;99774.03;;;10.76;54.21
35655;BME280;21773;50.010;19.972;2023-05-08T01:34:26;99769.88;;;10.80;54.50
35655;BME280;21773;50.010;19.972;2023-05-08T01:37:41;99764.06;;;10.76;54.01
35655;BME280;21773;50.010;19.972;2023-05-08T01:40:52;99772.16;;;10.70;54.49
35655;BME280;21773;50.010;19.972;2023-05-08T01:44:06;99772.00;;;10.84;54.19
35655;BME280;21773;50.010;19.972;2023-05-08T01:47:14;99776.38;;;10.92;54.14
35655;BME280;21773;50.010;19.972;2023-05-08T01:50:23;99783.66;;;10.98;53.96
35655;BME280;21773;50.010;19.972;2023-05-08T01:53:29;99778.28;;;10.98;54.16
35655;BME280;21773;50.010;19.972;2023-05-08T01:56:36;99777.63;;;10.96;53.79
35655;BME280;21773;50.010;19.972;2023-05-08T01:59:43;99771.84;;;11.06;53.46
35655;BME280;21773;50.010;19.972;2023-05-08T02:02:48;99769.38;;;11.11;53.04
35655;BME280;21773;50.010;19.972;2023-05-08T02:05:57;99758.56;;;10.98;52.75
35655;BME280;21773;50.010;19.972;2023-05-08T02:09:01;99764.13;;;10.90;53.21
35655;BME280;21773;50.010;19.972;2023-05-08T02:12:06;99778.03;;;10.93;53.19
35655;BME280;21773;50.010;19.972;2023-05-08T02:15:13;99767.88;;;10.95;53.60
35655;BME280;21773;50.010;19.972;2023-05-08T02:18:19;99769.09;;;10.86;53.13
35655;BME280;21773;50.010;19.972;2023-05-08T02:21:25;99774.69;;;10.91;53.41
35655;BME280;21773;50.010;19.972;2023-05-08T02:24:31;99773.28;;;11.02;53.58
35655;BME280;21773;50.010;19.972;2023-05-08T02:27:37;99774.09;;;10.96;53.74
35655;BME280;21773;50.010;19.972;2023-05-08T02:30:42;99774.16;;;11.09;53.70
35655;BME280;21773;50.010;19.972;2023-05-08T02:33:48;99779.88;;;10.86;54.14
35655;BME280;21773;50.010;19.972;2023-05-08T02:36:53;99779.03;;;10.79;54.25
35655;BME280;21773;50.010;19.972;2023-05-08T02:39:57;99779.03;;;10.79;54.52
35655;BME280;21773;50.010;19.972;2023-05-08T02:43:03;99785.81;;;10.68;54.76
35655;BME280;21773;50.010;19.972;2023-05-08T02:46:10;99773.50;;;10.53;55.12
35655;BME280;21773;50.010;19.972;2023-05-08T02:49:24;99784.06;;;10.48;55.57
35655;BME280;21773;50.010;19.972;2023-05-08T02:52:32;99779.53;;;10.55;55.40
35655;BME280;21773;50.010;19.972;2023-05-08T02:55:41;99785.41;;;10.65;54.75
35655;BME280;21773;50.010;19.972;2023-05-08T02:59:01;99788.13;;;10.71;54.67
35655;BME280;21773;50.010;19.972;2023-05-08T03:02:14;99795.13;;;10.66;54.43
35655;BME280;21773;50.010;19.972;2023-05-08T03:05:24;99785.56;;;10.57;54.48
35655;BME280;21773;50.010;19.972;2023-05-08T03:08:33;99792.47;;;10.72;54.06
35655;BME280;21773;50.010;19.972;2023-05-08T03:11:39;99786.00;;;10.60;53.95
35655;BME280;21773;50.010;19.972;2023-05-08T03:14:52;99788.25;;;10.57;54.23
35655;BME280;21773;50.010;19.972;2023-05-08T03:18:02;99785.31;;;10.45;54.28
35655;BME280;21773;50.010;19.972;2023-05-08T03:21:09;99781.00;;;10.57;54.15
35655;BME280;21773;50.010;19.972;2023-05-08T03:24:18;99796.75;;;10.54;54.08
35655;BME280;21773;50.010;19.972;2023-05-08T03:27:28;99793.84;;;10.55;54.13
35655;BME280;21773;50.010;19.972;2023-05-08T03:30:35;99807.06;;;10.43;53.92
35655;BME280;21773;50.010;19.972;2023-05-08T03:33:43;99796.56;;;10.62;53.99
35655;BME280;21773;50.010;19.972;2023-05-08T03:36:47;99800.16;;;10.69;53.89
35655;BME280;21773;50.010;19.972;2023-05-08T03:39:53;99805.16;;;10.78;53.59
35655;BME280;21773;50.010;19.972;2023-05-08T03:42:59;99802.47;;;10.78;53.04
35655;BME280;21773;50.010;19.972;2023-05-08T03:46:04;99798.06;;;10.71;52.86
35655;BME280;21773;50.010;19.972;2023-05-08T03:49:10;99797.28;;;10.77;52.50
35655;BME280;21773;50.010;19.972;2023-05-08T03:52:14;99798.25;;;10.63;53.18
35655;BME280;21773;50.010;19.972;2023-05-08T03:55:20;99806.16;;;10.64;53.45
35655;BME280;21773;50.010;19.972;2023-05-08T03:58:27;99809.81;;;10.50;53.65
35655;BME280;21773;50.010;19.972;2023-05-08T04:01:36;99807.84;;;10.37;53.52
35655;BME280;21773;50.010;19.972;2023-05-08T04:04:46;99806.41;;;10.14;54.23
35655;BME280;21773;50.010;19.972;2023-05-08T04:07:57;99822.91;;;10.25;53.78
35655;BME280;21773;50.010;19.972;2023-05-08T04:11:09;99748.94;;;9.51;53.86
35655;BME280;21773;50.010;19.972;2023-05-08T04:14:18;99824.28;;;9.93;54.27
35655;BME280;21773;50.010;19.972;2023-05-08T04:17:30;99822.25;;;9.95;54.28
35655;BME280;21773;50.010;19.972;2023-05-08T04:20:38;99828.66;;;9.73;54.05
35655;BME280;21773;50.010;19.972;2023-05-08T04:23:43;99821.09;;;9.83;54.30
35655;BME280;21773;50.010;19.972;2023-05-08T04:26:49;99836.47;;;9.89;53.82
35655;BME280;21773;50.010;19.972;2023-05-08T04:29:54;99831.78;;;9.98;53.22
35655;BME280;21773;50.010;19.972;2023-05-08T04:32:59;99851.09;;;10.02;53.56
35655;BME280;21773;50.010;19.972;2023-05-08T04:36:05;99857.50;;;10.00;53.63
35655;BME280;21773;50.010;19.972;2023-05-08T04:39:13;99852.06;;;9.94;53.67
35655;BME280;21773;50.010;19.972;2023-05-08T04:42:18;99855.19;;;9.97;54.03
35655;BME280;21773;50.010;19.972;2023-05-08T04:45:23;99864.59;;;10.08;53.48
35655;BME280;21773;50.010;19.972;2023-05-08T04:48:26;99854.47;;;10.10;52.78
35655;BME280;21773;50.010;19.972;2023-05-08T04:51:32;99865.63;;;10.28;52.90
35655;BME280;21773;50.010;19.972;2023-05-08T04:54:35;99876.13;;;10.45;52.92
35655;BME280;21773;50.010;19.972;2023-05-08T04:57:40;99865.34;;;10.45;51.61
35655;BME280;21773;50.010;19.972;2023-05-08T05:00:44;99861.38;;;10.40;52.56
35655;BME280;21773;50.010;19.972;2023-05-08T05:03:47;99875.63;;;10.34;52.06
35655;BME280;21773;50.010;19.972;2023-05-08T05:06:52;99881.53;;;10.51;51.87
35655;BME280;21773;50.010;19.972;2023-05-08T05:09:55;99884.88;;;10.53;52.28
35655;BME280;21773;50.010;19.972;2023-05-08T05:13:00;99886.06;;;10.44;52.22
35655;BME280;21773;50.010;19.972;2023-05-08T05:16:04;99890.72;;;10.57;52.30
35655;BME280;21773;50.010;19.972;2023-05-08T05:19:07;99900.13;;;10.67;51.86
35655;BME280;21773;50.010;19.972;2023-05-08T05:22:11;99891.75;;;10.90;52.03
35655;BME280;21773;50.010;19.972;2023-05-08T05:25:15;99899.22;;;10.95;51.01
35655;BME280;21773;50.010;19.972;2023-05-08T05:28:20;99895.59;;;11.15;51.00
35655;BME280;21773;50.010;19.972;2023-05-08T05:31:24;99907.44;;;11.14;50.81
35655;BME280;21773;50.010;19.972;2023-05-08T05:34:27;99892.72;;;11.17;50.51
35655;BME280;21773;50.010;19.972;2023-05-08T05:37:31;99902.03;;;11.08;50.48
35655;BME280;21773;50.010;19.972;2023-05-08T05:40:34;99905.03;;;11.33;50.93
35655;BME280;21773;50.010;19.972;2023-05-08T05:43:39;99908.44;;;11.48;50.69
35655;BME280;21773;50.010;19.972;2023-05-08T05:46:42;99906.97;;;11.58;50.43
35655;BME280;21773;50.010;19.972;2023-05-08T05:49:46;99908.69;;;11.66;50.53
35655;BME280;21773;50.010;19.972;2023-05-08T05:52:49;99903.28;;;11.66;50.04
35655;BME280;21773;50.010;19.972;2023-05-08T05:55:54;99914.97;;;11.80;49.93
35655;BME280;21773;50.010;19.972;2023-05-08T05:58:58;99905.88;;;11.87;49.86
35655;BME280;21773;50.010;19.972;2023-05-08T06:02:03;99913.13;;;11.87;49.84
35655;BME280;21773;50.010;19.972;2023-05-08T06:05:07;99918.53;;;11.87;50.04
35655;BME280;21773;50.010;19.972;2023-05-08T06:08:11;99918.75;;;11.92;49.45
35655;BME280;21773;50.010;19.972;2023-05-08T06:11:14;99918.53;;;11.93;49.02
35655;BME280;21773;50.010;19.972;2023-05-08T06:14:19;99932.03;;;11.93;48.88
35655;BME280;21773;50.010;19.972;2023-05-08T06:17:23;99937.91;;;11.97;48.81
35655;BME280;21773;50.010;19.972;2023-05-08T06:20:26;99931.44;;;11.91;49.07
35655;BME280;21773;50.010;19.972;2023-05-08T06:23:30;99924.81;;;12.07;48.91
35655;BME280;21773;50.010;19.972;2023-05-08T06:26:33;99938.75;;;12.30;48.46
35655;BME280;21773;50.010;19.972;2023-05-08T06:29:38;99934.16;;;12.24;48.09
35655;BME280;21773;50.010;19.972;2023-05-08T06:32:41;99944.56;;;12.27;47.87
35655;BME280;21773;50.010;19.972;2023-05-08T06:35:45;99937.72;;;12.31;47.19
35655;BME280;21773;50.010;19.972;2023-05-08T06:38:49;99943.34;;;12.36;47.11
35655;BME280;21773;50.010;19.972;2023-05-08T06:41:52;99941.88;;;12.40;46.82
35655;BME280;21773;50.010;19.972;2023-05-08T06:45:06;99944.38;;;12.55;47.08
35655;BME280;21773;50.010;19.972;2023-05-08T06:48:09;99942.91;;;12.79;46.57
35655;BME280;21773;50.010;19.972;2023-05-08T06:51:13;99951.56;;;13.20;46.27
35655;BME280;21773;50.010;19.972;2023-05-08T06:54:16;99954.03;;;13.35;45.10
35655;BME280;21773;50.010;19.972;2023-05-08T06:57:19;99949.16;;;13.57;45.37
35655;BME280;21773;50.010;19.972;2023-05-08T07:00:24;99958.41;;;13.87;44.87
35655;BME280;21773;50.010;19.972;2023-05-08T07:03:28;99948.09;;;14.27;43.84
35655;BME280;21773;50.010;19.972;2023-05-08T07:06:32;99963.91;;;14.68;42.40
35655;BME280;21773;50.010;19.972;2023-05-08T07:09:35;99954.88;;;14.49;41.52
35655;BME280;21773;50.010;19.972;2023-05-08T07:12:39;99968.59;;;14.79;42.01
35655;BME280;21773;50.010;19.972;2023-05-08T07:15:43;99958.91;;;15.08;41.00
35655;BME280;21773;50.010;19.972;2023-05-08T07:18:47;99968.22;;;15.37;39.51
35655;BME280;21773;50.010;19.972;2023-05-08T07:21:50;99962.47;;;15.81;39.88
35655;BME280;21773;50.010;19.972;2023-05-08T07:24:53;99966.59;;;15.84;39.63
35655;BME280;21773;50.010;19.972;2023-05-08T07:27:56;99965.19;;;16.11;37.99
35655;BME280;21773;50.010;19.972;2023-05-08T07:31:05;99973.38;;;15.63;38.75
35655;BME280;21773;50.010;19.972;2023-05-08T07:34:09;99970.84;;;15.80;38.21
35655;BME280;21773;50.010;19.972;2023-05-08T07:37:12;99978.88;;;16.04;38.93
35655;BME280;21773;50.010;19.972;2023-05-08T07:40:15;99980.56;;;16.06;39.10
35655;BME280;21773;50.010;19.972;2023-05-08T07:43:19;99974.75;;;15.84;37.55
35655;BME280;21773;50.010;19.972;2023-05-08T07:46:23;99986.13;;;16.11;38.14
35655;BME280;21773;50.010;19.972;2023-05-08T07:49:27;99977.59;;;16.07;38.37
35655;BME280;21773;50.010;19.972;2023-05-08T07:52:30;99980.59;;;15.33;38.19
35655;BME280;21773;50.010;19.972;2023-05-08T07:55:33;99977.88;;;15.14;39.64
35655;BME280;21773;50.010;19.972;2023-05-08T07:58:37;99985.91;;;14.60;39.57
35655;BME280;21773;50.010;19.972;2023-05-08T08:01:42;99986.91;;;14.65;40.75
35655;BME280;21773;50.010;19.972;2023-05-08T08:04:48;99989.00;;;14.63;41.32
35655;BME280;21773;50.010;19.972;2023-05-08T08:07:51;99957.75;;;14.54;40.97
35655;BME280;21773;50.010;19.972;2023-05-08T08:10:55;99979.69;;;14.78;41.29
35655;BME280;21773;50.010;19.972;2023-05-08T08:13:58;99977.63;;;14.98;40.97
35655;BME280;21773;50.010;19.972;2023-05-08T08:17:03;99959.75;;;14.90;40.84
35655;BME280;21773;50.010;19.972;2023-05-08T08:20:08;99975.78;;;14.67;40.68
35655;BME280;21773;50.010;19.972;2023-05-08T08:23:11;99979.75;;;14.46;41.85
35655;BME280;21773;50.010;19.972;2023-05-08T08:26:14;99979.28;;;14.49;41.82
35655;BME280;21773;50.010;19.972;2023-05-08T08:29:18;99985.28;;;14.26;41.82
35655;BME280;21773;50.010;19.972;2023-05-08T08:32:22;99988.78;;;14.27;41.92
35655;BME280;21773;50.010;19.972;2023-05-08T08:35:26;99984.03;;;14.22;42.59
35655;BME280;21773;50.010;19.972;2023-05-08T08:38:30;99980.50;;;14.22;41.99
35655;BME280;21773;50.010;19.972;2023-05-08T08:41:33;99968.69;;;14.10;41.08
35655;BME280;21773;50.010;19.972;2023-05-08T08:44:37;99955.09;;;14.16;41.88
35655;BME280;21773;50.010;19.972;2023-05-08T08:47:44;99997.38;;;14.24;40.63
35655;BME280;21773;50.010;19.972;2023-05-08T08:50:50;99986.09;;;14.27;41.16
35655;BME280;21773;50.010;19.972;2023-05-08T08:54:02;99983.69;;;14.50;41.44
35655;BME280;21773;50.010;19.972;2023-05-08T08:57:08;99971.78;;;14.51;41.10
35655;BME280;21773;50.010;19.972;2023-05-08T09:00:12;99988.66;;;14.22;40.67
35655;BME280;21773;50.010;19.972;2023-05-08T09:03:17;99977.66;;;14.42;41.76
35655;BME280;21773;50.010;19.972;2023-05-08T09:06:21;99985.09;;;14.78;40.52
35655;BME280;21773;50.010;19.972;2023-05-08T09:09:24;99986.03;;;15.14;40.54
35655;BME280;21773;50.010;19.972;2023-05-08T09:12:29;99991.78;;;15.43;39.85
35655;BME280;21773;50.010;19.972;2023-05-08T09:15:32;99994.50;;;15.25;38.69
35655;BME280;21773;50.010;19.972;2023-05-08T09:18:37;99996.47;;;14.93;39.69
35655;BME280;21773;50.010;19.972;2023-05-08T09:21:40;99985.91;;;14.60;39.28
35655;BME280;21773;50.010;19.972;2023-05-08T09:24:54;99999.84;;;14.63;40.29
35655;BME280;21773;50.010;19.972;2023-05-08T09:28:14;100000.72;;;14.26;40.95
35655;BME280;21773;50.010;19.972;2023-05-08T09:31:17;99990.09;;;14.56;40.79
35655;BME280;21773;50.010;19.972;2023-05-08T09:34:23;99991.81;;;14.75;41.56
35655;BME280;21773;50.010;19.972;2023-05-08T09:37:28;100004.06;;;15.09;40.46
35655;BME280;21773;50.010;19.972;2023-05-08T09:40:31;99997.84;;;15.20;40.34
35655;BME280;21773;50.010;19.972;2023-05-08T09:43:35;99994.41;;;15.31;39.90
35655;BME280;21773;50.010;19.972;2023-05-08T09:46:38;99990.31;;;15.22;39.56
35655;BME280;21773;50.010;19.972;2023-05-08T09:49:56;99993.97;;;15.34;39.67
35655;BME280;21773;50.010;19.972;2023-05-08T09:53:00;99997.69;;;15.58;39.53
35655;BME280;21773;50.010;19.972;2023-05-08T09:56:03;99998.00;;;15.68;39.72
35655;BME280;21773;50.010;19.972;2023-05-08T09:59:21;100006.13;;;15.86;39.38
35655;BME280;21773;50.010;19.972;2023-05-08T10:02:25;100005.06;;;15.87;39.35
35655;BME280;21773;50.010;19.972;2023-05-08T10:05:30;100004.31;;;15.80;38.43
35655;BME280;21773;50.010;19.972;2023-05-08T10:08:35;100012.09;;;14.97;39.12
35655;BME280;21773;50.010;19.972;2023-05-08T10:11:38;100010.75;;;14.57;40.01
35655;BME280;21773;50.010;19.972;2023-05-08T10:14:42;100002.91;;;14.42;40.41
35655;BME280;21773;50.010;19.972;2023-05-08T10:17:53;99991.50;;;14.90;41.29
35655;BME280;21773;50.010;19.972;2023-05-08T10:21:01;99981.22;;;14.92;39.60
35655;BME280;21773;50.010;19.972;2023-05-08T10:24:12;99988.31;;;14.68;40.31
35655;BME280;21773;50.010;19.972;2023-05-08T10:27:18;99994.78;;;14.67;40.87
35655;BME280;21773;50.010;19.972;2023-05-08T10:30:25;99981.09;;;14.24;40.62
35655;BME280;21773;50.010;19.972;2023-05-08T10:33:30;100002.13;;;14.35;41.54
35655;BME280;21773;50.010;19.972;2023-05-08T10:36:34;99995.91;;;13.90;41.81
35655;BME280;21773;50.010;19.972;2023-05-08T10:39:39;99984.69;;;13.86;42.13
35655;BME280;21773;50.010;19.972;2023-05-08T10:42:44;99994.50;;;14.19;42.56
35655;BME280;21773;50.010;19.972;2023-05-08T10:45:48;99991.94;;;14.24;41.77
35655;BME280;21773;50.010;19.972;2023-05-08T10:48:56;99981.03;;;14.37;41.91
35655;BME280;21773;50.010;19.972;2023-05-08T10:52:14;99982.50;;;14.64;41.27
35655;BME280;21773;50.010;19.972;2023-05-08T10:55:21;99976.66;;;14.86;40.79
35655;BME280;21773;50.010;19.972;2023-05-08T10:58:29;99979.72;;;14.96;40.23
35655;BME280;21773;50.010;19.972;2023-05-08T11:01:38;99985.56;;;14.99;40.78
35655;BME280;21773;50.010;19.972;2023-05-08T11:04:41;99974.63;;;15.24;39.72
35655;BME280;21773;50.010;19.972;2023-05-08T11:07:57;99976.53;;;16.08;38.87
35655;BME280;21773;50.010;19.972;2023-05-08T11:11:04;99975.66;;;16.26;38.94
35655;BME280;21773;50.010;19.972;2023-05-08T11:14:13;99977.75;;;16.12;37.77
35655;BME280;21773;50.010;19.972;2023-05-08T11:17:22;99976.22;;;16.16;38.31
35655;BME280;21773;50.010;19.972;2023-05-08T11:20:37;99973.34;;;16.11;37.73
35655;BME280;21773;50.010;19.972;2023-05-08T11:23:42;99965.91;;;15.88;38.14
35655;BME280;21773;50.010;19.972;2023-05-08T11:26:48;99969.16;;;16.27;38.52
35655;BME280;21773;50.010;19.972;2023-05-08T11:30:22;99971.59;;;16.17;37.59
35655;BME280;21773;50.010;19.972;2023-05-08T11:33:29;99965.63;;;15.96;37.92
35655;BME280;21773;50.010;19.972;2023-05-08T11:36:35;99966.41;;;15.67;38.14
35655;BME280;21773;50.010;19.972;2023-05-08T11:39:40;99970.72;;;15.56;38.55
35655;BME280;21773;50.010;19.972;2023-05-08T11:42:43;99973.41;;;15.75;38.65
35655;BME280;21773;50.010;19.972;2023-05-08T11:45:46;99983.53;;;15.31;38.31
35655;BME280;21773;50.010;19.972;2023-05-08T11:48:57;99971.03;;;15.05;38.39
35655;BME280;21773;50.010;19.972;2023-05-08T11:52:03;99970.84;;;15.07;38.79
35655;BME280;21773;50.010;19.972;2023-05-08T11:55:10;99972.66;;;15.49;39.14
35655;BME280;21773;50.010;19.972;2023-05-08T11:58:14;99964.31;;;15.51;38.44
35655;BME280;21773;50.010;19.972;2023-05-08T12:01:19;99960.16;;;15.67;37.99
35655;BME280;21773;50.010;19.972;2023-05-08T12:04:22;99949.97;;;15.62;38.27
35655;BME280;21773;50.010;19.972;2023-05-08T12:07:26;99956.84;;;15.94;38.60
35655;BME280;21773;50.010;19.972;2023-05-08T12:10:31;99957.03;;;16.11;38.56
35655;BME280;21773;50.010;19.972;2023-05-08T12:13:34;99957.53;;;16.20;37.79
35655;BME280;21773;50.010;19.972;2023-05-08T12:16:38;99949.38;;;16.20;36.50
35655;BME280;21773;50.010;19.972;2023-05-08T12:19:42;99960.28;;;16.31;36.68
35655;BME280;21773;50.010;19.972;2023-05-08T12:22:50;99960.09;;;16.56;36.66
35655;BME280;21773;50.010;19.972;2023-05-08T12:25:57;99947.59;;;16.78;36.40
35655;BME280;21773;50.010;19.972;2023-05-08T12:29:01;99954.81;;;16.96;36.80
35655;BME280;21773;50.010;19.972;2023-05-08T12:32:04;99953.94;;;17.30;36.89
35655;BME280;21773;50.010;19.972;2023-05-08T12:35:09;99955.09;;;17.58;35.61
35655;BME280;21773;50.010;19.972;2023-05-08T12:38:13;99951.06;;;17.72;36.13
35655;BME280;21773;50.010;19.972;2023-05-08T12:41:23;99946.53;;;17.78;35.10
35655;BME280;21773;50.010;19.972;2023-05-08T12:44:29;99943.28;;;17.41;35.09
35655;BME280;21773;50.010;19.972;2023-05-08T12:47:32;99947.81;;;17.23;35.03
35655;BME280;21773;50.010;19.972;2023-05-08T12:50:37;99947.56;;;17.37;35.93
35655;BME280;21773;50.010;19.972;2023-05-08T12:53:41;99937.97;;;17.22;35.02
35655;BME280;21773;50.010;19.972;2023-05-08T12:56:45;99950.66;;;16.59;34.86
35655;BME280;21773;50.010;19.972;2023-05-08T12:59:48;99940.72;;;16.64;35.90
35655;BME280;21773;50.010;19.972;2023-05-08T13:02:54;99943.69;;;16.86;36.51
35655;BME280;21773;50.010;19.972;2023-05-08T13:05:57;99941.81;;;17.10;36.26
35655;BME280;21773;50.010;19.972;2023-05-08T13:09:01;99950.44;;;17.18;36.17
35655;BME280;21773;50.010;19.972;2023-05-08T13:12:05;99943.78;;;17.26;35.64
35655;BME280;21773;50.010;19.972;2023-05-08T13:15:09;99944.81;;;17.37;35.93
35655;BME280;21773;50.010;19.972;2023-05-08T13:18:13;99940.47;;;17.12;35.19
35655;BME280;21773;50.010;19.972;2023-05-08T13:21:17;99943.19;;;17.24;35.94
35655;BME280;21773;50.010;19.972;2023-05-08T13:24:21;99939.66;;;17.12;34.50
35655;BME280;21773;50.010;19.972;2023-05-08T13:27:25;99932.44;;;16.94;34.54
35655;BME280;21773;50.010;19.972;2023-05-08T13:30:29;99939.44;;;16.90;35.63
35655;BME280;21773;50.010;19.972;2023-05-08T13:33:33;99943.69;;;16.86;35.71
35655;BME280;21773;50.010;19.972;2023-05-08T13:36:38;99944.06;;;16.89;35.56
35655;BME280;21773;50.010;19.972;2023-05-08T13:39:41;99941.22;;;16.61;35.48
35655;BME280;21773;50.010;19.972;2023-05-08T13:42:46;99936.28;;;16.40;35.84
35655;BME280;21773;50.010;19.972;2023-05-08T13:45:49;99942.31;;;16.30;36.73
35655;BME280;21773;50.010;19.972;2023-05-08T13:48:52;99941.41;;;16.07;36.61
35655;BME280;21773;50.010;19.972;2023-05-08T13:51:55;99940.72;;;16.11;36.84
35655;BME280;21773;50.010;19.972;2023-05-08T13:54:58;99943.22;;;16.24;37.17
35655;BME280;21773;50.010;19.972;2023-05-08T13:58:04;99925.63;;;16.38;36.93
35655;BME280;21773;50.010;19.972;2023-05-08T14:01:07;99935.31;;;16.76;36.78
35655;BME280;21773;50.010;19.972;2023-05-08T14:04:27;99936.69;;;17.13;36.25
35655;BME280;21773;50.010;19.972;2023-05-08T14:07:30;99936.00;;;16.83;35.42
35655;BME280;21773;50.010;19.972;2023-05-08T14:10:33;99936.69;;;17.13;35.50
35655;BME280;21773;50.010;19.972;2023-05-08T14:13:37;99927.84;;;17.58;36.33
35655;BME280;21773;50.010;19.972;2023-05-08T14:16:43;99929.97;;;17.56;35.27
35655;BME280;21773;50.010;19.972;2023-05-08T14:19:47;99921.84;;;17.44;33.73
35655;BME280;21773;50.010;19.972;2023-05-08T14:22:50;99922.75;;;17.50;35.13
35655;BME280;21773;50.010;19.972;2023-05-08T14:25:54;99931.41;;;17.47;34.94
35655;BME280;21773;50.010;19.972;2023-05-08T14:28:59;99935.25;;;17.34;34.85
35655;BME280;21773;50.010;19.972;2023-05-08T14:32:02;99918.19;;;17.15;34.95
35655;BME280;21773;50.010;19.972;2023-05-08T14:35:06;99927.09;;;17.11;34.32
35655;BME280;21773;50.010;19.972;2023-05-08T14:38:11;99932.53;;;17.11;34.60
35655;BME280;21773;50.010;19.972;2023-05-08T14:41:14;99926.41;;;17.04;33.92
35655;BME280;21773;50.010;19.972;2023-05-08T14:44:18;99923.78;;;16.97;33.84
35655;BME280;21773;50.010;19.972;2023-05-08T14:47:21;99922.00;;;17.14;33.74
35655;BME280;21773;50.010;19.972;2023-05-08T14:50:25;99927.72;;;16.89;34.13
35655;BME280;21773;50.010;19.972;2023-05-08T14:53:28;99926.63;;;16.67;34.50
35655;BME280;21773;50.010;19.972;2023-05-08T14:56:34;99932.44;;;16.82;34.86
35655;BME280;21773;50.010;19.972;2023-05-08T14:59:49;99925.22;;;16.88;35.04
35655;BME280;21773;50.010;19.972;2023-05-08T15:02:56;99932.31;;;16.77;34.69
35655;BME280;21773;50.010;19.972;2023-05-08T15:05:59;99935.41;;;16.81;35.73
35655;BME280;21773;50.010;19.972;2023-05-08T15:09:02;99938.03;;;16.76;35.72
35655;BME280;21773;50.010;19.972;2023-05-08T15:12:05;99927.81;;;16.60;35.44
35655;BME280;21773;50.010;19.972;2023-05-08T15:15:11;99941.56;;;16.65;36.23
35655;BME280;21773;50.010;19.972;2023-05-08T15:18:14;99928.34;;;16.38;35.78
35655;BME280;21773;50.010;19.972;2023-05-08T15:21:18;99931.94;;;16.09;35.78
35655;BME280;21773;50.010;19.972;2023-05-08T15:24:26;99914.00;;;16.20;36.57
35655;BME280;21773;50.010;19.972;2023-05-08T15:27:29;99910.81;;;16.34;36.84
35655;BME280;21773;50.010;19.972;2023-05-08T15:30:36;99922.56;;;16.46;36.03
35655;BME280;21773;50.010;19.972;2023-05-08T15:33:39;99923.28;;;16.54;35.82
35655;BME280;21773;50.010;19.972;2023-05-08T15:36:46;99920.72;;;16.70;35.48
35655;BME280;21773;50.010;19.972;2023-05-08T15:39:49;99917.03;;;16.76;35.48
35655;BME280;21773;50.010;19.972;2023-05-08T15:42:52;99918.00;;;16.70;34.89
35655;BME280;21773;50.010;19.972;2023-05-08T15:45:57;99922.38;;;16.83;35.92
35655;BME280;21773;50.010;19.972;2023-05-08T15:49:00;99909.72;;;16.88;35.13
35655;BME280;21773;50.010;19.972;2023-05-08T15:52:04;99909.00;;;16.93;35.79
35655;BME280;21773;50.010;19.972;2023-05-08T15:55:07;99910.41;;;16.72;35.36
35655;BME280;21773;50.010;19.972;2023-05-08T15:58:11;99908.75;;;16.60;35.55
35655;BME280;21773;50.010;19.972;2023-05-08T16:01:16;99897.81;;;16.36;35.32
35655;BME280;21773;50.010;19.972;2023-05-08T16:04:19;99905.13;;;16.24;36.38
35655;BME280;21773;50.010;19.972;2023-05-08T16:07:22;99904.25;;;16.00;36.47
35655;BME280;21773;50.010;19.972;2023-05-08T16:10:25;99893.38;;;16.00;36.90